sensor_id;sensor_type;location;lat;lon;timestamp;temperature;humidity
17172;DHT22;8701;50.150;8.756;2022-07-04T00:03:08;22.30;92.90
17172;DHT22;8701;50.150;8.756;2022-07-04T00:07:11;22.20;92.90
17172;DHT22;8701;50.150;8.756;2022-07-04T00:11:13;22.20;92.90
17172;DHT22;8701;50.150;8.756;2022-07-04T00:15:16;22.20;93.00
17172;DHT22;8701;50.150;8.756;2022-07-04T00:19:19;22.10;93.10
17172;DHT22;8701;50.150;8.756;2022-07-04T00:23:22;22.00;93.10
17172;DHT22;8701;50.150;8.756;2022-07-04T00:27:24;22.00;93.40
17172;DHT22;8701;50.150;8.756;2022-07-04T00:31:27;22.00;93.20
17172;DHT22;8701;50.150;8.756;2022-07-04T00:35:30;21.90;93.00
17172;DHT22;8701;50.150;8.756;2022-07-04T00:39:33;21.80;93.20
17172;DHT22;8701;50.150;8.756;2022-07-04T00:43:35;21.80;93.30
17172;DHT22;8701;50.150;8.756;2022-07-04T00:47:37;21.70;93.20
17172;DHT22;8701;50.150;8.756;2022-07-04T00:51:42;21.70;93.50
17172;DHT22;8701;50.150;8.756;2022-07-04T00:55:45;21.60;93.80
17172;DHT22;8701;50.150;8.756;2022-07-04T00:59:47;21.50;93.80
17172;DHT22;8701;50.150;8.756;2022-07-04T01:03:49;21.40;94.10
17172;DHT22;8701;50.150;8.756;2022-07-04T01:07:53;21.30;94.00
17172;DHT22;8701;50.150;8.756;2022-07-04T01:11:55;21.30;94.20
17172;DHT22;8701;50.150;8.756;2022-07-04T01:15:58;21.10;94.40
17172;DHT22;8701;50.150;8.756;2022-07-04T01:20:00;20.90;94.60
17172;DHT22;8701;50.150;8.756;2022-07-04T01:24:04;21.00;95.10
17172;DHT22;8701;50.150;8.756;2022-07-04T01:28:07;20.90;95.10
17172;DHT22;8701;50.150;8.756;2022-07-04T01:32:10;20.80;95.20
17172;DHT22;8701;50.150;8.756;2022-07-04T01:36:12;20.80;95.30
17172;DHT22;8701;50.150;8.756;2022-07-04T01:40:16;20.60;95.70
17172;DHT22;8701;50.150;8.756;2022-07-04T01:44:18;20.70;96.00
17172;DHT22;8701;50.150;8.756;2022-07-04T01:48:21;20.60;96.20
17172;DHT22;8701;50.150;8.756;2022-07-04T01:52:23;20.50;96.20
17172;DHT22;8701;50.150;8.756;2022-07-04T01:56:26;20.40;96.40
17172;DHT22;8701;50.150;8.756;2022-07-04T02:00:29;20.50;96.80
17172;DHT22;8701;50.150;8.756;2022-07-04T02:04:49;20.40;97.10
17172;DHT22;8701;50.150;8.756;2022-07-04T02:08:51;20.40;97.10
17172;DHT22;8701;50.150;8.756;2022-07-04T02:13:12;20.30;97.20
17172;DHT22;8701;50.150;8.756;2022-07-04T02:17:15;20.20;97.60
17172;DHT22;8701;50.150;8.756;2022-07-04T02:21:17;20.20;97.70
17172;DHT22;8701;50.150;8.756;2022-07-04T02:25:19;20.10;97.90
17172;DHT22;8701;50.150;8.756;2022-07-04T02:29:23;20.10;98.20
17172;DHT22;8701;50.150;8.756;2022-07-04T02:33:25;20.00;98.20
17172;DHT22;8701;50.150;8.756;2022-07-04T02:37:27;20.00;98.90
17172;DHT22;8701;50.150;8.756;2022-07-04T02:41:30;19.90;98.80
17172;DHT22;8701;50.150;8.756;2022-07-04T02:45:33;19.90;99.10
17172;DHT22;8701;50.150;8.756;2022-07-04T02:49:36;19.90;99.40
17172;DHT22;8701;50.150;8.756;2022-07-04T02:53:38;20.00;99.80
17172;DHT22;8701;50.150;8.756;2022-07-04T02:57:40;19.80;99.90
17172;DHT22;8701;50.150;8.756;2022-07-04T03:01:44;19.70;99.90
17172;DHT22;8701;50.150;8.756;2022-07-04T03:05:46;19.80;99.90
17172;DHT22;8701;50.150;8.756;2022-07-04T03:09:48;19.70;99.90
17172;DHT22;8701;50.150;8.756;2022-07-04T03:13:51;19.60;99.90
17172;DHT22;8701;50.150;8.756;2022-07-04T03:17:54;19.60;99.90
17172;DHT22;8701;50.150;8.756;2022-07-04T03:21:57;19.60;99.90
17172;DHT22;8701;50.150;8.756;2022-07-04T03:25:59;19.60;99.90
17172;DHT22;8701;50.150;8.756;2022-07-04T03:30:01;19.50;99.90
17172;DHT22;8701;50.150;8.756;2022-07-04T03:34:05;19.50;99.90
17172;DHT22;8701;50.150;8.756;2022-07-04T03:38:07;19.40;99.90
17172;DHT22;8701;50.150;8.756;2022-07-04T03:42:10;19.50;99.90
17172;DHT22;8701;50.150;8.756;2022-07-04T03:46:12;19.40;99.90
17172;DHT22;8701;50.150;8.756;2022-07-04T03:50:16;19.30;99.90
17172;DHT22;8701;50.150;8.756;2022-07-04T03:54:18;19.30;99.90
17172;DHT22;8701;50.150;8.756;2022-07-04T03:58:20;19.20;99.90
17172;DHT22;8701;50.150;8.756;2022-07-04T04:02:23;19.20;99.90
17172;DHT22;8701;50.150;8.756;2022-07-04T04:06:26;19.10;99.90
17172;DHT22;8701;50.150;8.756;2022-07-04T04:10:29;19.20;99.90
17172;DHT22;8701;50.150;8.756;2022-07-04T04:14:32;19.10;99.90
17172;DHT22;8701;50.150;8.756;2022-07-04T04:18:35;19.10;99.90
17172;DHT22;8701;50.150;8.756;2022-07-04T04:22:39;19.00;99.90
17172;DHT22;8701;50.150;8.756;2022-07-04T04:26:41;19.00;99.90
17172;DHT22;8701;50.150;8.756;2022-07-04T04:30:43;19.00;99.90
17172;DHT22;8701;50.150;8.756;2022-07-04T04:34:46;19.00;99.90
17172;DHT22;8701;50.150;8.756;2022-07-04T04:38:49;18.90;99.90
17172;DHT22;8701;50.150;8.756;2022-07-04T04:42:51;18.90;99.90
17172;DHT22;8701;50.150;8.756;2022-07-04T04:46:53;18.90;99.90
17172;DHT22;8701;50.150;8.756;2022-07-04T04:50:56;19.00;99.90
17172;DHT22;8701;50.150;8.756;2022-07-04T04:54:59;19.10;99.90
17172;DHT22;8701;50.150;8.756;2022-07-04T04:59:01;18.90;99.90
17172;DHT22;8701;50.150;8.756;2022-07-04T05:03:04;19.10;99.90
17172;DHT22;8701;50.150;8.756;2022-07-04T05:07:06;19.30;99.90
17172;DHT22;8701;50.150;8.756;2022-07-04T05:11:09;19.10;99.90
17172;DHT22;8701;50.150;8.756;2022-07-04T05:15:12;19.10;99.90
17172;DHT22;8701;50.150;8.756;2022-07-04T05:19:15;19.10;99.90
17172;DHT22;8701;50.150;8.756;2022-07-04T05:23:18;19.10;99.90
17172;DHT22;8701;50.150;8.756;2022-07-04T05:27:21;19.20;99.90
17172;DHT22;8701;50.150;8.756;2022-07-04T05:31:23;19.50;99.90
17172;DHT22;8701;50.150;8.756;2022-07-04T05:35:26;19.30;99.90
17172;DHT22;8701;50.150;8.756;2022-07-04T05:39:29;19.40;99.90
17172;DHT22;8701;50.150;8.756;2022-07-04T05:43:33;19.50;99.90
17172;DHT22;8701;50.150;8.756;2022-07-04T05:47:35;19.50;99.90
17172;DHT22;8701;50.150;8.756;2022-07-04T05:51:37;19.60;99.90
17172;DHT22;8701;50.150;8.756;2022-07-04T05:55:39;19.70;99.90
17172;DHT22;8701;50.150;8.756;2022-07-04T05:59:43;19.80;99.90
17172;DHT22;8701;50.150;8.756;2022-07-04T06:03:46;19.90;99.90
17172;DHT22;8701;50.150;8.756;2022-07-04T06:07:48;20.00;99.90
17172;DHT22;8701;50.150;8.756;2022-07-04T06:11:50;20.00;99.90
17172;DHT22;8701;50.150;8.756;2022-07-04T06:15:53;20.20;99.90
17172;DHT22;8701;50.150;8.756;2022-07-04T06:19:56;20.20;99.90
17172;DHT22;8701;50.150;8.756;2022-07-04T06:23:58;20.30;99.90
17172;DHT22;8701;50.150;8.756;2022-07-04T06:28:00;20.40;99.90
17172;DHT22;8701;50.150;8.756;2022-07-04T06:32:05;20.60;99.90
17172;DHT22;8701;50.150;8.756;2022-07-04T06:36:07;20.70;99.90
17172;DHT22;8701;50.150;8.756;2022-07-04T06:40:09;21.00;99.90
17172;DHT22;8701;50.150;8.756;2022-07-04T06:44:12;20.90;99.90
17172;DHT22;8701;50.150;8.756;2022-07-04T06:48:15;20.90;99.90
17172;DHT22;8701;50.150;8.756;2022-07-04T06:52:17;21.10;99.90
17172;DHT22;8701;50.150;8.756;2022-07-04T06:56:20;21.20;99.90
17172;DHT22;8701;50.150;8.756;2022-07-04T07:00:22;21.20;99.90
17172;DHT22;8701;50.150;8.756;2022-07-04T07:04:26;21.40;99.90
17172;DHT22;8701;50.150;8.756;2022-07-04T07:08:28;21.40;99.90
17172;DHT22;8701;50.150;8.756;2022-07-04T07:12:30;21.60;99.90
17172;DHT22;8701;50.150;8.756;2022-07-04T07:16:32;21.70;99.80
17172;DHT22;8701;50.150;8.756;2022-07-04T07:20:36;21.60;98.60
17172;DHT22;8701;50.150;8.756;2022-07-04T07:24:39;21.80;97.80
17172;DHT22;8701;50.150;8.756;2022-07-04T07:28:41;21.90;99.30
17172;DHT22;8701;50.150;8.756;2022-07-04T07:32:44;22.00;98.00
17172;DHT22;8701;50.150;8.756;2022-07-04T07:36:47;22.10;99.70
17172;DHT22;8701;50.150;8.756;2022-07-04T07:40:49;22.10;98.10
17172;DHT22;8701;50.150;8.756;2022-07-04T07:44:52;22.30;99.30
17172;DHT22;8701;50.150;8.756;2022-07-04T07:48:54;22.50;97.90
17172;DHT22;8701;50.150;8.756;2022-07-04T07:52:58;22.50;96.70
17172;DHT22;8701;50.150;8.756;2022-07-04T07:57:00;22.60;96.60
17172;DHT22;8701;50.150;8.756;2022-07-04T08:01:02;22.60;98.10
17172;DHT22;8701;50.150;8.756;2022-07-04T08:05:06;22.80;96.30
17172;DHT22;8701;50.150;8.756;2022-07-04T08:09:10;23.00;95.90
17172;DHT22;8701;50.150;8.756;2022-07-04T08:13:12;23.30;97.30
17172;DHT22;8701;50.150;8.756;2022-07-04T08:17:14;23.50;97.60
17172;DHT22;8701;50.150;8.756;2022-07-04T08:21:16;24.00;94.80
17172;DHT22;8701;50.150;8.756;2022-07-04T08:25:20;24.30;92.60
17172;DHT22;8701;50.150;8.756;2022-07-04T08:29:22;24.50;92.20
17172;DHT22;8701;50.150;8.756;2022-07-04T08:33:25;24.50;92.20
17172;DHT22;8701;50.150;8.756;2022-07-04T08:37:27;24.40;94.50
17172;DHT22;8701;50.150;8.756;2022-07-04T08:41:36;24.40;94.60
17172;DHT22;8701;50.150;8.756;2022-07-04T08:45:40;24.80;91.90
17172;DHT22;8701;50.150;8.756;2022-07-04T08:49:46;25.50;93.90
17172;DHT22;8701;50.150;8.756;2022-07-04T08:53:56;25.90;91.60
17172;DHT22;8701;50.150;8.756;2022-07-04T08:57:59;26.50;91.90
17172;DHT22;8701;50.150;8.756;2022-07-04T09:02:21;27.20;90.30
17172;DHT22;8701;50.150;8.756;2022-07-04T09:06:24;27.70;86.80
17172;DHT22;8701;50.150;8.756;2022-07-04T09:10:28;27.90;88.20
17172;DHT22;8701;50.150;8.756;2022-07-04T09:14:33;28.40;86.60
17172;DHT22;8701;50.150;8.756;2022-07-04T09:18:36;27.80;82.00
17172;DHT22;8701;50.150;8.756;2022-07-04T09:22:38;27.30;84.20
17172;DHT22;8701;50.150;8.756;2022-07-04T09:26:44;27.80;83.40
17172;DHT22;8701;50.150;8.756;2022-07-04T09:30:48;28.00;83.30
17172;DHT22;8701;50.150;8.756;2022-07-04T09:34:54;27.70;82.90
17172;DHT22;8701;50.150;8.756;2022-07-04T09:39:07;28.20;84.60
17172;DHT22;8701;50.150;8.756;2022-07-04T09:43:13;28.80;80.90
17172;DHT22;8701;50.150;8.756;2022-07-04T09:47:24;29.20;88.90
17172;DHT22;8701;50.150;8.756;2022-07-04T09:51:39;30.00;86.10
17172;DHT22;8701;50.150;8.756;2022-07-04T09:55:42;30.50;75.40
17172;DHT22;8701;50.150;8.756;2022-07-04T09:59:46;30.60;83.20
17172;DHT22;8701;50.150;8.756;2022-07-04T10:03:51;30.70;80.80
17172;DHT22;8701;50.150;8.756;2022-07-04T10:07:55;30.40;81.90
17172;DHT22;8701;50.150;8.756;2022-07-04T10:11:57;30.60;72.50
17172;DHT22;8701;50.150;8.756;2022-07-04T10:16:00;30.90;78.50
17172;DHT22;8701;50.150;8.756;2022-07-04T10:20:05;31.10;77.90
17172;DHT22;8701;50.150;8.756;2022-07-04T10:24:08;31.70;76.80
17172;DHT22;8701;50.150;8.756;2022-07-04T10:28:10;31.50;78.10
17172;DHT22;8701;50.150;8.756;2022-07-04T10:32:13;31.30;71.10
17172;DHT22;8701;50.150;8.756;2022-07-04T10:36:18;31.30;72.20
17172;DHT22;8701;50.150;8.756;2022-07-04T10:40:39;31.40;73.80
17172;DHT22;8701;50.150;8.756;2022-07-04T10:44:41;31.70;76.80
17172;DHT22;8701;50.150;8.756;2022-07-04T10:48:48;31.80;70.00
17172;DHT22;8701;50.150;8.756;2022-07-04T10:53:08;31.70;74.50
17172;DHT22;8701;50.150;8.756;2022-07-04T10:57:13;31.20;69.70
17172;DHT22;8701;50.150;8.756;2022-07-04T11:01:17;30.70;73.50
17172;DHT22;8701;50.150;8.756;2022-07-04T11:05:30;30.60;70.70
17172;DHT22;8701;50.150;8.756;2022-07-04T11:09:35;30.70;68.50
17172;DHT22;8701;50.150;8.756;2022-07-04T11:13:37;30.30;71.90
17172;DHT22;8701;50.150;8.756;2022-07-04T11:17:40;30.80;72.90
17172;DHT22;8701;50.150;8.756;2022-07-04T11:21:42;30.70;67.40
17172;DHT22;8701;50.150;8.756;2022-07-04T11:25:48;30.60;72.20
17172;DHT22;8701;50.150;8.756;2022-07-04T11:29:52;30.70;72.50
17172;DHT22;8701;50.150;8.756;2022-07-04T11:33:55;30.80;69.70
17172;DHT22;8701;50.150;8.756;2022-07-04T11:37:58;31.20;66.90
17172;DHT22;8701;50.150;8.756;2022-07-04T11:42:02;31.20;63.20
17172;DHT22;8701;50.150;8.756;2022-07-04T11:46:22;31.50;67.20
17172;DHT22;8701;50.150;8.756;2022-07-04T11:50:24;31.80;64.50
17172;DHT22;8701;50.150;8.756;2022-07-04T11:54:26;31.70;65.60
17172;DHT22;8701;50.150;8.756;2022-07-04T11:58:40;31.50;63.50
17172;DHT22;8701;50.150;8.756;2022-07-04T12:02:43;31.40;66.40
17172;DHT22;8701;50.150;8.756;2022-07-04T12:06:47;31.60;62.30
17172;DHT22;8701;50.150;8.756;2022-07-04T12:10:50;31.70;66.00
17172;DHT22;8701;50.150;8.756;2022-07-04T12:14:59;31.40;61.70
17172;DHT22;8701;50.150;8.756;2022-07-04T12:19:08;31.00;59.10
17172;DHT22;8701;50.150;8.756;2022-07-04T12:23:11;30.70;69.40
17172;DHT22;8701;50.150;8.756;2022-07-04T12:27:17;30.90;64.80
17172;DHT22;8701;50.150;8.756;2022-07-04T12:31:37;31.20;63.50
17172;DHT22;8701;50.150;8.756;2022-07-04T12:35:46;31.30;62.40
17172;DHT22;8701;50.150;8.756;2022-07-04T12:39:48;31.50;67.30
17172;DHT22;8701;50.150;8.756;2022-07-04T12:43:51;31.40;65.20
17172;DHT22;8701;50.150;8.756;2022-07-04T12:47:56;31.30;70.10
17172;DHT22;8701;50.150;8.756;2022-07-04T12:52:07;31.30;67.80
17172;DHT22;8701;50.150;8.756;2022-07-04T12:56:11;31.30;67.80
17172;DHT22;8701;50.150;8.756;2022-07-04T13:00:28;31.40;67.70
17172;DHT22;8701;50.150;8.756;2022-07-04T13:04:32;31.30;66.80
17172;DHT22;8701;50.150;8.756;2022-07-04T13:08:34;31.30;69.10
17172;DHT22;8701;50.150;8.756;2022-07-04T13:12:37;31.30;63.90
17172;DHT22;8701;50.150;8.756;2022-07-04T13:16:39;30.90;69.20
17172;DHT22;8701;50.150;8.756;2022-07-04T13:20:42;30.80;59.80
17172;DHT22;8701;50.150;8.756;2022-07-04T13:24:45;30.80;67.50
17172;DHT22;8701;50.150;8.756;2022-07-04T13:28:47;30.70;68.50
17172;DHT22;8701;50.150;8.756;2022-07-04T13:32:49;30.80;65.20
17172;DHT22;8701;50.150;8.756;2022-07-04T13:36:53;30.90;69.10
17172;DHT22;8701;50.150;8.756;2022-07-04T13:40:57;30.80;69.60
17172;DHT22;8701;50.150;8.756;2022-07-04T13:44:59;30.80;69.80
17172;DHT22;8701;50.150;8.756;2022-07-04T13:49:01;30.90;65.10
17172;DHT22;8701;50.150;8.756;2022-07-04T13:53:05;30.90;65.80
17172;DHT22;8701;50.150;8.756;2022-07-04T13:57:08;30.90;69.50
17172;DHT22;8701;50.150;8.756;2022-07-04T14:01:10;30.90;64.90
17172;DHT22;8701;50.150;8.756;2022-07-04T14:05:12;30.90;66.90
17172;DHT22;8701;50.150;8.756;2022-07-04T14:09:16;30.70;59.50
17172;DHT22;8701;50.150;8.756;2022-07-04T14:13:18;30.70;66.20
17172;DHT22;8701;50.150;8.756;2022-07-04T14:17:20;30.30;62.90
17172;DHT22;8701;50.150;8.756;2022-07-04T14:21:23;30.20;60.00
17172;DHT22;8701;50.150;8.756;2022-07-04T14:25:27;30.40;59.70
17172;DHT22;8701;50.150;8.756;2022-07-04T14:29:29;30.40;59.50
17172;DHT22;8701;50.150;8.756;2022-07-04T14:33:31;30.40;61.70
17172;DHT22;8701;50.150;8.756;2022-07-04T14:37:34;30.60;65.80
17172;DHT22;8701;50.150;8.756;2022-07-04T14:41:38;30.50;59.10
17172;DHT22;8701;50.150;8.756;2022-07-04T14:45:40;30.20;60.90
17172;DHT22;8701;50.150;8.756;2022-07-04T14:49:43;30.30;65.80
17172;DHT22;8701;50.150;8.756;2022-07-04T14:53:46;30.20;67.80
17172;DHT22;8701;50.150;8.756;2022-07-04T14:57:49;30.20;67.00
17172;DHT22;8701;50.150;8.756;2022-07-04T15:01:52;30.10;66.80
17172;DHT22;8701;50.150;8.756;2022-07-04T15:05:54;30.10;66.40
17172;DHT22;8701;50.150;8.756;2022-07-04T15:09:57;29.90;63.90
17172;DHT22;8701;50.150;8.756;2022-07-04T15:14:00;29.70;66.60
17172;DHT22;8701;50.150;8.756;2022-07-04T15:18:03;29.60;65.90
17172;DHT22;8701;50.150;8.756;2022-07-04T15:22:05;29.60;66.10
17172;DHT22;8701;50.150;8.756;2022-07-04T15:26:25;29.60;65.30
17172;DHT22;8701;50.150;8.756;2022-07-04T15:30:28;29.30;68.80
17172;DHT22;8701;50.150;8.756;2022-07-04T15:34:31;29.30;68.60
17172;DHT22;8701;50.150;8.756;2022-07-04T15:38:34;29.10;70.40
17172;DHT22;8701;50.150;8.756;2022-07-04T15:42:36;29.00;70.00
17172;DHT22;8701;50.150;8.756;2022-07-04T15:46:40;28.90;68.10
17172;DHT22;8701;50.150;8.756;2022-07-04T15:50:56;28.70;70.40
17172;DHT22;8701;50.150;8.756;2022-07-04T15:54:58;28.60;69.90
17172;DHT22;8701;50.150;8.756;2022-07-04T15:59:00;28.50;69.60
17172;DHT22;8701;50.150;8.756;2022-07-04T16:03:04;28.30;70.00
17172;DHT22;8701;50.150;8.756;2022-07-04T16:07:06;28.20;67.80
17172;DHT22;8701;50.150;8.756;2022-07-04T16:11:08;28.30;67.10
17172;DHT22;8701;50.150;8.756;2022-07-04T16:15:11;28.10;68.50
17172;DHT22;8701;50.150;8.756;2022-07-04T16:19:14;28.00;71.70
17172;DHT22;8701;50.150;8.756;2022-07-04T16:23:16;27.90;71.40
17172;DHT22;8701;50.150;8.756;2022-07-04T16:27:19;27.70;68.90
17172;DHT22;8701;50.150;8.756;2022-07-04T16:31:21;27.80;70.30
17172;DHT22;8701;50.150;8.756;2022-07-04T16:35:24;27.60;69.20
17172;DHT22;8701;50.150;8.756;2022-07-04T16:39:26;27.60;68.00
17172;DHT22;8701;50.150;8.756;2022-07-04T16:43:29;27.50;65.80
17172;DHT22;8701;50.150;8.756;2022-07-04T16:47:32;27.40;67.90
17172;DHT22;8701;50.150;8.756;2022-07-04T16:51:36;27.30;66.80
17172;DHT22;8701;50.150;8.756;2022-07-04T16:55:39;27.30;68.20
17172;DHT22;8701;50.150;8.756;2022-07-04T16:59:41;27.30;66.30
17172;DHT22;8701;50.150;8.756;2022-07-04T17:03:43;27.20;65.90
17172;DHT22;8701;50.150;8.756;2022-07-04T17:07:47;27.10;67.90
17172;DHT22;8701;50.150;8.756;2022-07-04T17:11:49;27.00;67.40
17172;DHT22;8701;50.150;8.756;2022-07-04T17:15:51;27.00;68.60
17172;DHT22;8701;50.150;8.756;2022-07-04T17:19:53;27.00;69.40
17172;DHT22;8701;50.150;8.756;2022-07-04T17:23:57;27.00;70.90
17172;DHT22;8701;50.150;8.756;2022-07-04T17:27:59;27.00;69.00
17172;DHT22;8701;50.150;8.756;2022-07-04T17:32:02;26.80;69.10
17172;DHT22;8701;50.150;8.756;2022-07-04T17:36:05;26.70;69.10
17172;DHT22;8701;50.150;8.756;2022-07-04T17:40:09;26.70;69.60
17172;DHT22;8701;50.150;8.756;2022-07-04T17:44:12;26.70;71.00
17172;DHT22;8701;50.150;8.756;2022-07-04T17:48:15;26.60;69.20
17172;DHT22;8701;50.150;8.756;2022-07-04T17:52:17;26.60;68.70
17172;DHT22;8701;50.150;8.756;2022-07-04T17:56:20;26.50;70.20
17172;DHT22;8701;50.150;8.756;2022-07-04T18:00:23;26.50;71.40
17172;DHT22;8701;50.150;8.756;2022-07-04T18:04:25;26.50;73.30
17172;DHT22;8701;50.150;8.756;2022-07-04T18:08:27;26.40;72.40
17172;DHT22;8701;50.150;8.756;2022-07-04T18:12:30;26.40;73.70
17172;DHT22;8701;50.150;8.756;2022-07-04T18:16:33;26.30;72.60
17172;DHT22;8701;50.150;8.756;2022-07-04T18:20:37;26.20;69.50
17172;DHT22;8701;50.150;8.756;2022-07-04T18:24:39;26.20;71.90
17172;DHT22;8701;50.150;8.756;2022-07-04T18:28:42;26.20;73.10
17172;DHT22;8701;50.150;8.756;2022-07-04T18:32:45;26.10;74.00
17172;DHT22;8701;50.150;8.756;2022-07-04T18:36:47;26.00;73.00
17172;DHT22;8701;50.150;8.756;2022-07-04T18:40:50;25.90;76.00
17172;DHT22;8701;50.150;8.756;2022-07-04T18:45:11;25.90;73.10
17172;DHT22;8701;50.150;8.756;2022-07-04T18:49:14;25.80;72.20
17172;DHT22;8701;50.150;8.756;2022-07-04T18:53:17;25.70;73.10
17172;DHT22;8701;50.150;8.756;2022-07-04T18:57:19;25.70;74.10
17172;DHT22;8701;50.150;8.756;2022-07-04T19:01:22;25.60;75.50
17172;DHT22;8701;50.150;8.756;2022-07-04T19:05:25;25.50;72.80
17172;DHT22;8701;50.150;8.756;2022-07-04T19:09:28;25.50;72.50
17172;DHT22;8701;50.150;8.756;2022-07-04T19:13:30;25.40;73.00
17172;DHT22;8701;50.150;8.756;2022-07-04T19:17:34;25.40;73.10
17172;DHT22;8701;50.150;8.756;2022-07-04T19:21:36;25.30;72.90
17172;DHT22;8701;50.150;8.756;2022-07-04T19:25:39;25.20;72.70
17172;DHT22;8701;50.150;8.756;2022-07-04T19:29:41;25.10;72.80
17172;DHT22;8701;50.150;8.756;2022-07-04T19:33:45;25.00;73.20
17172;DHT22;8701;50.150;8.756;2022-07-04T19:37:47;24.90;74.80
17172;DHT22;8701;50.150;8.756;2022-07-04T19:41:49;24.80;73.20
17172;DHT22;8701;50.150;8.756;2022-07-04T19:45:52;24.80;76.00
17172;DHT22;8701;50.150;8.756;2022-07-04T19:49:56;24.70;74.10
17172;DHT22;8701;50.150;8.756;2022-07-04T19:53:58;24.60;74.70
17172;DHT22;8701;50.150;8.756;2022-07-04T19:58:01;24.50;75.70
17172;DHT22;8701;50.150;8.756;2022-07-04T20:02:03;24.40;73.80
17172;DHT22;8701;50.150;8.756;2022-07-04T20:06:07;24.40;74.30
17172;DHT22;8701;50.150;8.756;2022-07-04T20:10:10;24.30;74.30
17172;DHT22;8701;50.150;8.756;2022-07-04T20:14:12;24.20;74.90
17172;DHT22;8701;50.150;8.756;2022-07-04T20:18:14;24.10;74.80
17172;DHT22;8701;50.150;8.756;2022-07-04T20:22:18;24.00;78.00
17172;DHT22;8701;50.150;8.756;2022-07-04T20:26:21;24.00;76.50
17172;DHT22;8701;50.150;8.756;2022-07-04T20:30:23;23.90;77.50
17172;DHT22;8701;50.150;8.756;2022-07-04T20:34:25;23.80;78.40
17172;DHT22;8701;50.150;8.756;2022-07-04T20:38:32;23.80;76.70
17172;DHT22;8701;50.150;8.756;2022-07-04T20:42:35;23.70;77.10
17172;DHT22;8701;50.150;8.756;2022-07-04T20:46:38;23.60;76.80
17172;DHT22;8701;50.150;8.756;2022-07-04T20:50:40;23.50;76.40
17172;DHT22;8701;50.150;8.756;2022-07-04T20:54:44;23.40;75.80
17172;DHT22;8701;50.150;8.756;2022-07-04T20:58:46;23.40;76.50
17172;DHT22;8701;50.150;8.756;2022-07-04T21:02:49;23.30;76.40
17172;DHT22;8701;50.150;8.756;2022-07-04T21:06:51;23.30;76.20
17172;DHT22;8701;50.150;8.756;2022-07-04T21:10:55;23.20;77.40
17172;DHT22;8701;50.150;8.756;2022-07-04T21:14:57;23.10;77.50
17172;DHT22;8701;50.150;8.756;2022-07-04T21:18:59;23.00;77.00
17172;DHT22;8701;50.150;8.756;2022-07-04T21:23:02;22.90;77.10
17172;DHT22;8701;50.150;8.756;2022-07-04T21:27:05;22.90;77.80
17172;DHT22;8701;50.150;8.756;2022-07-04T21:31:07;22.80;78.00
17172;DHT22;8701;50.150;8.756;2022-07-04T21:35:10;22.70;77.90
17172;DHT22;8701;50.150;8.756;2022-07-04T21:39:12;22.70;78.50
17172;DHT22;8701;50.150;8.756;2022-07-04T21:43:16;22.60;78.60
17172;DHT22;8701;50.150;8.756;2022-07-04T21:47:18;22.40;78.30
17172;DHT22;8701;50.150;8.756;2022-07-04T21:51:20;22.40;78.30
17172;DHT22;8701;50.150;8.756;2022-07-04T21:55:22;22.40;78.60
17172;DHT22;8701;50.150;8.756;2022-07-04T21:59:26;22.40;78.20
17172;DHT22;8701;50.150;8.756;2022-07-04T22:03:28;22.40;79.30
17172;DHT22;8701;50.150;8.756;2022-07-04T22:07:30;22.40;79.60
17172;DHT22;8701;50.150;8.756;2022-07-04T22:11:32;22.30;79.40
17172;DHT22;8701;50.150;8.756;2022-07-04T22:15:36;22.30;80.50
17172;DHT22;8701;50.150;8.756;2022-07-04T22:19:38;22.20;80.70
17172;DHT22;8701;50.150;8.756;2022-07-04T22:23:40;22.10;80.50
17172;DHT22;8701;50.150;8.756;2022-07-04T22:27:43;22.10;82.00
17172;DHT22;8701;50.150;8.756;2022-07-04T22:31:46;22.00;81.00
17172;DHT22;8701;50.150;8.756;2022-07-04T22:35:48;21.80;82.70
17172;DHT22;8701;50.150;8.756;2022-07-04T22:39:51;21.80;82.20
17172;DHT22;8701;50.150;8.756;2022-07-04T22:43:53;21.70;82.00
17172;DHT22;8701;50.150;8.756;2022-07-04T22:47:56;21.50;82.50
17172;DHT22;8701;50.150;8.756;2022-07-04T22:52:00;21.50;83.10
17172;DHT22;8701;50.150;8.756;2022-07-04T22:56:03;21.40;82.60
17172;DHT22;8701;50.150;8.756;2022-07-04T23:00:08;21.40;84.00
17172;DHT22;8701;50.150;8.756;2022-07-04T23:04:12;21.30;83.50
17172;DHT22;8701;50.150;8.756;2022-07-04T23:08:14;21.20;84.60
17172;DHT22;8701;50.150;8.756;2022-07-04T23:12:16;21.10;84.40
17172;DHT22;8701;50.150;8.756;2022-07-04T23:16:18;21.10;85.20
17172;DHT22;8701;50.150;8.756;2022-07-04T23:20:22;21.00;84.70
17172;DHT22;8701;50.150;8.756;2022-07-04T23:24:24;20.90;84.40
17172;DHT22;8701;50.150;8.756;2022-07-04T23:28:26;20.90;84.80
17172;DHT22;8701;50.150;8.756;2022-07-04T23:32:28;20.90;84.60
17172;DHT22;8701;50.150;8.756;2022-07-04T23:36:32;20.80;84.90
17172;DHT22;8701;50.150;8.756;2022-07-04T23:40:34;20.80;84.40
17172;DHT22;8701;50.150;8.756;2022-07-04T23:44:36;20.70;85.20
17172;DHT22;8701;50.150;8.756;2022-07-04T23:48:39;20.60;84.80
17172;DHT22;8701;50.150;8.756;2022-07-04T23:52:42;20.60;85.30
17172;DHT22;8701;50.150;8.756;2022-07-04T23:56:44;20.60;85.20
